Time;durP1;ratioP1;P1;durP2;ratioP2;P2;SDS_P1;SDS_P2;PMS_P1;PMS_P2;Temp;Humidity;BMP_temperature;BMP_pressure;BME280_temperature;BME280_humidity;BME280_pressure;Samples;Min_cycle;Max_cycle;Signal;HPM_P1;HPM_P2
2022/03/18 00:02:47;;;;;;;27.03;24.23;;;11.80;33.60;;;;;;10298518;28;20656;-73
2022/03/18 00:07:52;;;;;;;22.93;20.80;;;11.80;33.80;;;;;;10309984;28;20239;-74
2022/03/18 00:12:55;;;;;;;22.87;20.67;;;11.80;33.50;;;;;;10297807;28;20226;-74
2022/03/18 00:17:59;;;;;;;26.37;23.63;;;11.70;33.30;;;;;;10302324;28;20237;-74
2022/03/18 00:23:02;;;;;;;25.13;22.60;;;11.80;33.80;;;;;;10311261;28;20230;-74
2022/03/18 00:28:06;;;;;;;27.60;24.77;;;11.80;33.60;;;;;;10302233;28;20236;-74
2022/03/18 00:33:10;;;;;;;24.77;22.17;;;11.70;33.40;;;;;;10302258;28;20241;-74
2022/03/18 00:38:13;;;;;;;27.37;23.43;;;11.70;33.60;;;;;;10305920;28;20235;-74
2022/03/18 00:43:17;;;;;;;22.50;20.30;;;11.60;33.50;;;;;;10305525;28;20234;-74
2022/03/18 00:53:42;;;;;;;23.27;19.40;;;11.50;33.80;;;;;;10299933;28;20238;-74
2022/03/18 00:58:45;;;;;;;26.53;23.83;;;11.50;33.70;;;;;;10298559;28;20338;-73
2022/03/18 01:03:49;;;;;;;21.57;19.53;;;11.50;33.80;;;;;;10303375;28;20735;-74
2022/03/18 01:08:53;;;;;;;20.93;18.80;;;11.50;33.90;;;;;;10297774;28;20235;-74
2022/03/18 01:13:56;;;;;;;26.07;23.47;;;11.50;33.70;;;;;;10302648;28;20239;-73
2022/03/18 01:19:00;;;;;;;26.50;23.90;;;11.40;33.80;;;;;;10309890;28;20240;-73
2022/03/18 01:24:04;;;;;;;23.77;21.33;;;11.40;34.10;;;;;;10313638;28;20247;-73
2022/03/18 01:29:08;;;;;;;24.47;22.07;;;11.40;33.90;;;;;;10301500;28;20237;-73
2022/03/18 01:34:13;;;;;;;23.27;20.77;;;11.40;34.00;;;;;;10318366;28;20288;-74
2022/03/18 01:39:16;;;;;;;27.57;24.60;;;11.40;34.20;;;;;;10307054;28;20249;-73
2022/03/18 01:44:20;;;;;;;24.93;22.37;;;11.40;34.20;;;;;;10318382;28;20235;-74
2022/03/18 01:49:24;;;;;;;27.67;24.87;;;11.40;34.10;;;;;;10311716;28;20245;-73
2022/03/18 01:54:47;;;;;;;25.20;22.77;;;11.30;34.30;;;;;;10308363;28;20235;-73
2022/03/18 01:59:52;;;;;;;28.13;25.20;;;11.30;34.10;;;;;;10307054;28;20235;-74
2022/03/18 02:04:58;;;;;;;26.90;24.13;;;11.30;34.30;;;;;;10321982;28;20265;-74
2022/03/18 02:10:01;;;;;;;26.23;23.67;;;11.30;34.60;;;;;;10317272;28;20750;-74
2022/03/18 02:15:04;;;;;;;26.00;23.40;;;11.30;34.30;;;;;;10306299;28;20239;-74
2022/03/18 02:20:10;;;;;;;28.50;22.13;;;11.30;34.40;;;;;;10306266;28;20234;-73
2022/03/18 02:25:15;;;;;;;27.07;24.47;;;11.20;34.60;;;;;;10304792;28;20227;-74
2022/03/18 02:30:18;;;;;;;24.40;22.07;;;11.20;34.80;;;;;;10316336;28;20228;-74
2022/03/18 02:35:22;;;;;;;23.97;21.53;;;11.10;34.40;;;;;;10308300;28;20361;-74
2022/03/18 02:40:28;;;;;;;26.20;23.70;;;11.10;34.50;;;;;;10305810;28;20231;-73
2022/03/18 02:45:31;;;;;;;27.20;24.40;;;11.10;34.80;;;;;;10304074;28;20246;-74
2022/03/18 02:50:35;;;;;;;25.63;22.93;;;11.20;34.80;;;;;;10300765;28;20342;-73
2022/03/18 02:55:40;;;;;;;25.90;23.27;;;11.10;34.60;;;;;;10311089;28;20845;-74
2022/03/18 03:00:44;;;;;;;27.23;24.60;;;11.20;35.00;;;;;;10306886;28;20255;-73
2022/03/18 03:11:09;;;;;;;26.50;23.97;;;11.20;34.80;;;;;;10304318;28;20603;-74
2022/03/18 03:16:12;;;;;;;27.20;24.60;;;11.10;34.90;;;;;;10311731;28;20227;-74
2022/03/18 03:21:16;;;;;;;26.47;23.87;;;11.10;34.90;;;;;;10302209;28;20251;-73
2022/03/18 03:26:20;;;;;;;28.60;24.80;;;11.00;34.80;;;;;;10311335;28;20250;-73
2022/03/18 03:31:24;;;;;;;27.00;24.43;;;11.00;35.10;;;;;;10311088;28;20765;-74
2022/03/18 03:36:27;;;;;;;26.50;23.77;;;11.00;34.80;;;;;;10298636;28;20239;-74
2022/03/18 03:41:31;;;;;;;24.70;22.20;;;11.00;34.80;;;;;;10310614;28;20227;-74
2022/03/18 03:46:35;;;;;;;24.87;22.37;;;11.00;35.10;;;;;;10299941;28;20238;-73
2022/03/18 03:51:38;;;;;;;24.87;22.43;;;11.00;34.80;;;;;;10310813;28;20737;-73
2022/03/18 03:56:42;;;;;;;26.60;23.97;;;11.00;34.80;;;;;;10315142;28;20253;-73
2022/03/18 04:01:45;;;;;;;24.57;22.13;;;11.00;35.20;;;;;;10305140;28;20994;-74
2022/03/18 04:06:49;;;;;;;26.23;23.43;;;11.00;34.80;;;;;;10304390;28;20666;-74
2022/03/18 04:11:54;;;;;;;27.47;24.80;;;11.00;35.00;;;;;;10303013;28;20324;-74
2022/03/18 04:16:57;;;;;;;24.53;22.17;;;11.00;35.30;;;;;;10297977;28;20720;-73
2022/03/18 04:22:01;;;;;;;26.03;23.47;;;10.90;35.00;;;;;;10301652;28;20245;-74
2022/03/18 04:27:05;;;;;;;26.77;24.07;;;10.90;34.90;;;;;;10302770;28;20877;-73
2022/03/18 04:32:11;;;;;;;25.07;22.57;;;10.80;35.20;;;;;;10313281;28;20334;-73
2022/03/18 04:37:14;;;;;;;25.70;22.67;;;10.80;35.20;;;;;;10306129;28;20616;-74
2022/03/18 04:42:19;;;;;;;26.33;23.60;;;10.70;35.20;;;;;;10300652;28;20235;-73
2022/03/18 04:47:22;;;;;;;25.00;22.63;;;10.70;35.60;;;;;;10301330;28;20700;-73
2022/03/18 04:52:26;;;;;;;24.30;21.87;;;10.70;35.30;;;;;;10309535;28;20238;-73
2022/03/18 04:57:31;;;;;;;27.50;24.77;;;10.70;35.30;;;;;;10301516;28;20868;-73
2022/03/18 05:02:35;;;;;;;26.80;24.10;;;10.70;35.60;;;;;;10298497;28;20241;-74
2022/03/18 05:07:40;;;;;;;24.03;21.77;;;10.70;35.40;;;;;;10306116;28;20231;-73
2022/03/18 05:12:45;;;;;;;25.07;22.50;;;10.70;35.40;;;;;;10300599;28;20587;-73
2022/03/18 05:17:51;;;;;;;23.70;21.33;;;10.70;35.70;;;;;;10309231;28;20240;-73
2022/03/18 05:22:54;;;;;;;23.90;21.40;;;10.70;35.60;;;;;;10313096;28;20775;-74
2022/03/18 05:27:58;;;;;;;29.03;26.13;;;10.70;35.40;;;;;;10308006;28;20239;-73
2022/03/18 05:33:01;;;;;;;30.43;27.23;;;10.70;35.60;;;;;;10311367;28;20239;-74
2022/03/18 05:38:05;;;;;;;31.70;28.50;;;10.70;35.30;;;;;;10299125;28;20231;-74
2022/03/18 05:43:10;;;;;;;33.77;30.27;;;10.70;35.20;;;;;;10311460;28;21572;-74
2022/03/18 05:48:13;;;;;;;34.30;30.63;;;10.60;35.30;;;;;;10317468;28;20238;-74
2022/03/18 05:53:16;;;;;;;34.17;30.63;;;10.60;35.00;;;;;;10308136;28;20238;-73
2022/03/18 05:58:21;;;;;;;33.83;30.33;;;10.60;35.00;;;;;;10301724;28;20234;-73
2022/03/18 06:03:24;;;;;;;33.83;30.43;;;10.60;35.30;;;;;;10306442;28;20242;-74
2022/03/18 06:13:50;;;;;;;34.83;31.20;;;10.60;35.10;;;;;;10313694;28;20959;-74
2022/03/18 06:18:54;;;;;;;35.50;31.83;;;10.60;35.30;;;;;;10325373;28;20239;-74
2022/03/18 06:23:57;;;;;;;34.33;30.73;;;10.60;35.10;;;;;;10335232;28;20648;-74
2022/03/18 06:29:02;;;;;;;34.70;30.97;;;10.60;34.90;;;;;;10326528;28;20247;-74
2022/03/18 06:34:05;;;;;;;30.93;27.63;;;10.50;35.00;;;;;;10332617;28;20305;-74
2022/03/18 06:39:09;;;;;;;31.23;28.00;;;10.60;34.50;;;;;;10344695;28;20245;-74
2022/03/18 06:44:14;;;;;;;31.17;27.23;;;10.50;34.30;;;;;;10339573;28;20235;-74
2022/03/18 06:49:17;;;;;;;29.37;26.37;;;10.50;34.30;;;;;;10327338;28;20321;-74
2022/03/18 06:54:20;;;;;;;28.50;25.50;;;10.50;34.30;;;;;;10338388;28;20293;-74
2022/03/18 06:59:24;;;;;;;30.27;26.40;;;10.50;34.10;;;;;;10330490;28;20233;-74
2022/03/18 07:04:28;;;;;;;28.93;25.93;;;10.40;34.00;;;;;;10332453;28;20246;-74
2022/03/18 07:09:31;;;;;;;27.70;24.57;;;10.40;34.00;;;;;;10328138;28;20227;-74
2022/03/18 07:14:36;;;;;;;26.57;23.87;;;10.40;33.90;;;;;;10327320;28;21004;-74
2022/03/18 07:19:39;;;;;;;26.80;23.93;;;10.40;33.70;;;;;;10322903;28;20600;-74
2022/03/18 07:24:42;;;;;;;27.80;25.07;;;10.40;33.80;;;;;;10336911;28;20782;-74
2022/03/18 07:29:47;;;;;;;27.90;24.97;;;10.50;33.80;;;;;;10327222;28;20230;-74
2022/03/18 07:34:50;;;;;;;29.17;26.20;;;10.50;33.70;;;;;;10327166;28;20749;-74
2022/03/18 07:39:53;;;;;;;27.87;24.87;;;10.50;33.60;;;;;;10326805;28;20775;-74
2022/03/18 07:44:57;;;;;;;29.47;26.47;;;10.60;33.60;;;;;;10326496;28;20613;-74
2022/03/18 07:50:01;;;;;;;29.67;26.57;;;10.60;33.70;;;;;;10326462;28;20230;-74
2022/03/18 07:55:04;;;;;;;29.13;26.03;;;10.70;33.80;;;;;;10308175;28;20329;-74
2022/03/18 08:00:11;;;;;;;28.23;25.33;;;10.70;33.70;;;;;;10322068;28;20235;-74
2022/03/18 08:05:15;;;;;;;30.47;27.23;;;10.80;33.40;;;;;;10323182;28;20242;-74
2022/03/18 08:10:18;;;;;;;31.40;28.10;;;10.90;33.60;;;;;;10326441;28;20273;-75
2022/03/18 08:15:24;;;;;;;30.77;27.57;;;10.90;33.50;;;;;;10326320;28;20238;-75
2022/03/18 08:20:28;;;;;;;31.30;28.03;;;11.00;33.50;;;;;;10325393;28;20306;-74
2022/03/18 08:25:31;;;;;;;29.77;26.67;;;11.00;33.50;;;;;;10324219;28;20264;-73
2022/03/18 08:30:36;;;;;;;30.40;27.30;;;11.10;33.40;;;;;;10325119;28;20227;-74
2022/03/18 08:35:41;;;;;;;31.67;28.33;;;11.20;33.30;;;;;;10348583;28;20233;-74
2022/03/18 08:40:44;;;;;;;32.63;28.30;;;11.40;33.50;;;;;;10365469;28;20281;-74
2022/03/18 08:45:50;;;;;;;32.40;28.97;;;11.50;33.30;;;;;;10365555;28;20668;-73
2022/03/18 08:50:54;;;;;;;32.53;29.20;;;11.60;33.10;;;;;;10365476;28;20237;-73
2022/03/18 08:55:57;;;;;;;33.70;30.20;;;11.70;33.30;;;;;;10325599;28;20596;-76
2022/03/18 09:01:02;;;;;;;33.50;29.93;;;11.80;33.10;;;;;;10335009;28;20321;-76
2022/03/18 09:06:07;;;;;;;32.63;29.13;;;11.90;32.90;;;;;;10316665;28;20254;-78
2022/03/18 09:11:10;;;;;;;33.97;30.47;;;12.10;33.20;;;;;;10324654;28;20318;-77
2022/03/18 09:16:15;;;;;;;34.33;30.77;;;12.20;33.30;;;;;;10309724;28;20227;-77
2022/03/18 09:21:35;;;;;;;34.43;30.77;;;12.30;32.90;;;;;;10315863;28;20233;-76
2022/03/18 09:26:38;;;;;;;33.97;30.47;;;12.40;32.70;;;;;;10318575;28;20242;-75
2022/03/18 09:31:47;;;;;;;33.07;29.73;;;12.60;32.70;;;;;;10317423;28;20707;-78
2022/03/18 09:36:50;;;;;;;34.23;30.73;;;12.60;32.40;;;;;;10318317;28;20231;-77
2022/03/18 09:41:55;;;;;;;34.37;30.90;;;12.70;32.90;;;;;;10321475;28;20223;-76
2022/03/18 09:47:01;;;;;;;36.50;32.87;;;12.90;32.70;;;;;;10323688;28;20236;-76
2022/03/18 09:52:05;;;;;;;36.37;32.67;;;13.00;32.30;;;;;;10319595;28;20311;-76
2022/03/18 09:57:09;;;;;;;35.67;32.07;;;13.20;32.50;;;;;;10317873;28;20726;-75
2022/03/18 10:02:27;;;;;;;35.87;32.20;;;13.30;32.30;;;;;;10319274;28;20235;-75
2022/03/18 10:07:31;;;;;;;33.93;30.47;;;13.40;31.50;;;;;;10320466;28;20235;-75
2022/03/18 10:12:35;;;;;;;34.93;31.47;;;13.60;32.40;;;;;;10319795;28;20233;-75
2022/03/18 10:17:46;;;;;;;35.20;31.53;;;13.80;32.00;;;;;;10313907;28;20317;-75
2022/03/18 10:22:49;;;;;;;34.97;31.47;;;13.90;31.70;;;;;;10317325;28;20306;-75
2022/03/18 10:27:52;;;;;;;33.70;30.23;;;14.10;32.00;;;;;;10316082;28;20234;-75
2022/03/18 10:32:56;;;;;;;31.77;28.43;;;14.20;31.50;;;;;;10322687;28;20712;-75
2022/03/18 10:38:00;;;;;;;31.27;28.17;;;14.30;32.20;;;;;;10320716;28;20220;-75
2022/03/18 10:43:05;;;;;;;29.07;26.27;;;14.40;31.50;;;;;;10319617;28;20236;-77
2022/03/18 10:48:14;;;;;;;27.43;24.73;;;14.60;30.80;;;;;;10324981;28;20236;-76
2022/03/18 10:53:19;;;;;;;29.00;26.10;;;14.70;29.80;;;;;;10332449;28;20239;-77
2022/03/18 10:58:22;;;;;;;28.40;25.47;;;14.80;30.70;;;;;;10327298;28;20326;-76
2022/03/18 11:03:28;;;;;;;28.60;25.73;;;15.00;30.80;;;;;;10304791;28;20238;-76
2022/03/18 11:08:36;;;;;;;28.90;26.07;;;15.20;30.20;;;;;;10311434;28;20349;-75
2022/03/18 11:13:51;;;;;;;22.27;20.07;;;15.30;29.80;;;;;;10307778;28;20614;-76
2022/03/18 11:18:57;;;;;;;20.20;18.20;;;15.50;27.80;;;;;;10315162;28;20242;-76
2022/03/18 11:24:03;;;;;;;23.13;20.83;;;15.60;28.50;;;;;;10312395;28;20254;-75
2022/03/18 11:29:07;;;;;;;18.37;16.67;;;15.70;29.00;;;;;;10308380;28;20245;-75
2022/03/18 11:34:15;;;;;;;19.00;16.97;;;15.90;28.50;;;;;;10301219;28;20234;-75
2022/03/18 11:39:22;;;;;;;18.50;16.80;;;16.00;27.20;;;;;;10308832;28;20613;-75
2022/03/18 11:44:43;;;;;;;18.97;17.07;;;16.00;27.10;;;;;;10302761;28;20242;-75
2022/03/18 11:49:48;;;;;;;18.83;17.03;;;16.00;25.50;;;;;;10304486;28;20321;-75
2022/03/18 11:54:52;;;;;;;20.33;18.33;;;16.00;27.40;;;;;;10307015;28;20232;-76
2022/03/18 11:59:55;;;;;;;19.00;17.10;;;16.00;27.50;;;;;;10308514;28;20746;-75
2022/03/18 12:05:00;;;;;;;18.50;16.80;;;16.00;27.20;;;;;;10319534;28;20947;-75
2022/03/18 12:10:05;;;;;;;17.37;15.67;;;16.00;26.40;;;;;;10311193;28;20230;-75
2022/03/18 12:15:10;;;;;;;17.53;15.73;;;16.10;27.20;;;;;;10314216;28;20230;-75
2022/03/18 12:20:18;;;;;;;18.00;16.20;;;16.10;26.40;;;;;;10307016;28;20314;-75
2022/03/18 12:25:22;;;;;;;16.90;15.40;;;16.10;25.60;;;;;;10308082;28;20242;-75
2022/03/18 12:30:27;;;;;;;17.60;15.97;;;16.10;26.60;;;;;;10310668;28;20238;-75
2022/03/18 12:35:32;;;;;;;16.67;15.03;;;16.00;26.30;;;;;;10313604;28;20234;-75
2022/03/18 12:40:37;;;;;;;16.07;14.47;;;16.00;25.80;;;;;;10320093;28;20250;-77
2022/03/18 12:45:42;;;;;;;16.87;15.27;;;16.00;26.10;;;;;;10311229;28;20731;-75
2022/03/18 12:50:49;;;;;;;15.73;14.23;;;16.10;25.60;;;;;;10309880;28;20242;-75
2022/03/18 12:55:54;;;;;;;17.03;15.50;;;16.10;25.30;;;;;;10305756;28;21066;-75
2022/03/18 13:00:59;;;;;;;14.70;13.40;;;16.10;25.60;;;;;;10309759;28;20227;-75
2022/03/18 13:06:08;;;;;;;13.70;12.40;;;16.10;25.40;;;;;;10312525;28;20231;-76
2022/03/18 13:11:11;;;;;;;14.63;13.23;;;16.20;24.60;;;;;;10317422;28;20326;-75
2022/03/18 13:16:15;;;;;;;14.67;13.33;;;16.30;25.60;;;;;;10311105;28;20723;-75
2022/03/18 13:21:21;;;;;;;14.67;13.17;;;16.40;25.30;;;;;;10314502;28;20230;-75
2022/03/18 13:26:24;;;;;;;15.43;14.03;;;16.40;25.20;;;;;;10318927;28;20241;-75
2022/03/18 13:36:50;;;;;;;11.00;10.00;;;16.50;24.70;;;;;;10318518;28;20237;-76
2022/03/18 13:41:55;;;;;;;12.50;11.27;;;16.60;24.30;;;;;;10324805;28;20265;-76
2022/03/18 13:47:00;;;;;;;17.40;15.70;;;16.60;24.40;;;;;;10319543;28;20720;-77
2022/03/18 13:52:07;;;;;;;17.50;15.70;;;16.70;25.10;;;;;;10319596;28;20241;-76
2022/03/18 13:57:10;;;;;;;15.70;14.20;;;16.80;24.50;;;;;;10313840;28;20250;-76
2022/03/18 14:02:23;;;;;;;17.80;16.20;;;16.80;25.20;;;;;;10321191;28;20231;-77
2022/03/18 14:07:46;;;;;;;18.50;16.80;;;16.80;23.20;;;;;;10321274;28;20235;-76
2022/03/18 14:13:00;;;;;;;16.43;14.93;;;16.80;23.10;;;;;;10319680;28;21636;-76
2022/03/18 14:18:07;;;;;;;17.70;16.00;;;16.80;23.50;;;;;;10317031;28;20219;-77
2022/03/18 14:23:20;;;;;;;19.33;17.60;;;16.90;24.60;;;;;;10326234;28;20273;-75
2022/03/18 14:28:24;;;;;;;19.90;17.77;;;16.80;23.10;;;;;;10339232;28;20246;-74
2022/03/18 14:33:30;;;;;;;19.37;17.43;;;16.80;24.50;;;;;;10328296;28;20239;-75
2022/03/18 14:38:35;;;;;;;19.77;17.77;;;16.70;24.60;;;;;;10333061;28;20238;-75
2022/03/18 14:43:38;;;;;;;19.30;17.40;;;16.60;24.60;;;;;;10331247;28;20673;-75
2022/03/18 14:48:41;;;;;;;22.57;20.37;;;16.60;25.10;;;;;;10340323;28;20668;-74
2022/03/18 14:53:46;;;;;;;21.57;19.57;;;16.50;24.80;;;;;;10329722;28;20235;-75
2022/03/18 14:58:49;;;;;;;20.57;18.57;;;16.50;24.70;;;;;;10328660;28;20651;-74
2022/03/18 15:03:53;;;;;;;20.97;18.90;;;16.50;25.00;;;;;;10328205;28;20993;-74
2022/03/18 15:08:58;;;;;;;20.07;18.03;;;16.50;25.10;;;;;;10328096;28;20399;-74
2022/03/18 15:14:01;;;;;;;18.40;16.70;;;16.50;24.80;;;;;;10328002;28;20746;-75
2022/03/18 15:19:04;;;;;;;17.57;15.87;;;16.50;24.90;;;;;;10342118;28;20261;-74
2022/03/18 15:24:09;;;;;;;20.17;18.27;;;16.50;24.70;;;;;;10332832;28;20238;-75
2022/03/18 15:29:12;;;;;;;19.43;17.53;;;16.50;24.50;;;;;;10326245;28;20239;-74
2022/03/18 15:34:15;;;;;;;18.50;16.80;;;16.50;24.70;;;;;;10307757;28;20762;-74
2022/03/18 15:39:20;;;;;;;19.70;17.70;;;16.50;24.70;;;;;;10287078;28;20302;-74
2022/03/18 15:44:23;;;;;;;24.13;21.83;;;16.50;24.50;;;;;;10322887;28;20235;-74
2022/03/18 15:49:27;;;;;;;25.70;23.13;;;16.50;24.80;;;;;;10333762;28;20239;-73
2022/03/18 15:54:32;;;;;;;26.00;22.77;;;16.40;24.70;;;;;;10329678;28;20234;-74
2022/03/18 15:59:35;;;;;;;25.40;22.83;;;16.30;24.60;;;;;;10336802;28;20233;-74
2022/03/18 16:04:38;;;;;;;25.00;22.20;;;16.20;24.80;;;;;;10326482;28;20243;-74
2022/03/18 16:09:43;;;;;;;24.70;22.27;;;16.20;24.80;;;;;;10335963;28;20242;-74
2022/03/18 16:14:46;;;;;;;23.63;21.37;;;16.00;24.50;;;;;;10330010;28;20262;-75
2022/03/18 16:19:49;;;;;;;24.80;22.43;;;15.90;24.80;;;;;;10334339;28;20601;-75
2022/03/18 16:24:54;;;;;;;23.50;21.10;;;15.90;24.80;;;;;;10328959;28;20819;-74
2022/03/18 16:29:57;;;;;;;23.07;20.87;;;15.80;24.70;;;;;;10323367;28;20715;-75
2022/03/18 16:35:01;;;;;;;22.77;20.47;;;15.70;24.80;;;;;;10324267;28;20986;-73
2022/03/18 16:40:07;;;;;;;23.77;21.37;;;15.60;24.80;;;;;;10321362;28;20246;-73
2022/03/18 16:45:10;;;;;;;21.97;19.77;;;15.60;24.70;;;;;;10323356;28;20249;-73
2022/03/18 16:50:14;;;;;;;22.17;20.07;;;15.50;24.90;;;;;;10324541;28;20261;-73
2022/03/18 16:55:21;;;;;;;22.47;20.17;;;15.40;24.90;;;;;;10324854;28;20243;-73
2022/03/18 17:00:25;;;;;;;22.63;20.43;;;15.40;24.80;;;;;;10324749;28;20231;-73
2022/03/18 17:05:28;;;;;;;23.30;20.77;;;15.30;24.90;;;;;;10321895;28;20241;-76
2022/03/18 17:10:33;;;;;;;23.00;20.67;;;15.20;24.90;;;;;;10333788;28;20235;-75
2022/03/18 17:15:37;;;;;;;22.70;20.40;;;15.10;24.70;;;;;;10318114;28;20685;-75
2022/03/18 17:20:40;;;;;;;22.30;20.00;;;15.10;25.00;;;;;;10325945;28;20235;-75
2022/03/18 17:25:45;;;;;;;23.33;20.83;;;15.00;25.00;;;;;;10335598;28;20242;-75
2022/03/18 17:30:48;;;;;;;22.40;20.23;;;15.00;25.00;;;;;;10329402;28;20314;-75
2022/03/18 17:35:51;;;;;;;23.40;20.93;;;14.90;25.10;;;;;;10331307;28;20235;-74
2022/03/18 17:40:56;;;;;;;23.07;20.67;;;14.80;25.10;;;;;;10328791;28;20231;-75
2022/03/18 17:45:59;;;;;;;24.60;22.07;;;14.80;25.10;;;;;;10329360;28;20714;-75
2022/03/18 17:51:03;;;;;;;23.87;21.47;;;14.70;25.10;;;;;;10318363;28;20262;-75
2022/03/18 17:56:08;;;;;;;25.23;22.77;;;14.60;25.20;;;;;;10335228;28;20241;-75
2022/03/18 18:01:12;;;;;;;23.33;21.03;;;14.60;25.30;;;;;;10323291;28;20728;-75
2022/03/18 18:06:17;;;;;;;24.97;22.47;;;14.50;25.40;;;;;;10330945;28;20239;-76
2022/03/18 18:11:22;;;;;;;26.63;24.03;;;14.50;25.50;;;;;;10330677;28;20261;-76
2022/03/18 18:16:25;;;;;;;30.57;27.37;;;14.40;25.50;;;;;;10334429;28;20231;-76
2022/03/18 18:26:50;;;;;;;29.83;26.87;;;14.30;25.70;;;;;;10315089;28;20237;-76
2022/03/18 18:31:53;;;;;;;31.97;28.87;;;14.20;25.80;;;;;;10316809;28;20246;-76
2022/03/18 18:36:59;;;;;;;32.57;29.33;;;14.20;25.80;;;;;;10322587;28;20235;-76
2022/03/18 18:42:07;;;;;;;35.50;31.90;;;14.10;26.00;;;;;;10311831;28;20224;-76
2022/03/18 18:47:10;;;;;;;35.87;32.27;;;14.10;26.20;;;;;;10313708;28;20240;-76
2022/03/18 18:52:14;;;;;;;36.33;32.63;;;14.00;26.20;;;;;;10314437;28;20250;-76
2022/03/18 18:57:19;;;;;;;36.53;32.77;;;13.90;26.30;;;;;;10320807;28;20227;-76
2022/03/18 19:02:24;;;;;;;37.00;33.20;;;13.80;26.30;;;;;;10317578;28;20238;-76
2022/03/18 19:07:46;;;;;;;37.80;33.80;;;13.80;26.40;;;;;;10324692;28;20239;-75
2022/03/18 19:12:51;;;;;;;36.83;33.17;;;13.60;26.50;;;;;;10314516;28;20724;-75
2022/03/18 19:17:54;;;;;;;36.93;33.20;;;13.60;26.70;;;;;;10319697;28;20227;-75
2022/03/18 19:23:01;;;;;;;37.13;33.33;;;13.50;26.60;;;;;;10318795;28;20234;-74
2022/03/18 19:28:05;;;;;;;36.97;33.33;;;13.50;26.80;;;;;;10324616;28;20253;-75
2022/03/18 19:33:09;;;;;;;38.50;34.53;;;13.40;26.80;;;;;;10319410;28;20714;-75
2022/03/18 19:38:13;;;;;;;38.53;34.53;;;13.40;26.80;;;;;;10321373;28;20239;-74
2022/03/18 19:43:17;;;;;;;40.77;36.43;;;13.30;26.80;;;;;;10321556;28;20237;-76
2022/03/18 19:48:21;;;;;;;39.90;35.77;;;13.30;27.60;;;;;;10318247;28;20602;-75
2022/03/18 19:53:24;;;;;;;42.27;37.77;;;13.10;26.90;;;;;;10323474;28;20239;-75
2022/03/18 20:03:53;;;;;;;40.97;36.67;;;13.10;27.20;;;;;;10320744;28;20241;-77
2022/03/18 20:08:58;;;;;;;44.50;39.80;;;13.00;27.20;;;;;;10319489;28;20293;-76
2022/03/18 20:14:04;;;;;;;43.80;39.17;;;12.90;27.20;;;;;;10320911;28;20446;-76
2022/03/18 20:19:07;;;;;;;45.40;40.47;;;12.80;27.50;;;;;;10326399;28;20575;-74
2022/03/18 20:24:12;;;;;;;44.80;40.10;;;12.80;27.40;;;;;;10318968;28;20226;-76
2022/03/18 20:29:16;;;;;;;43.77;39.13;;;12.70;27.40;;;;;;10318643;28;21817;-76
2022/03/18 20:34:22;;;;;;;46.67;41.67;;;12.70;27.70;;;;;;10322555;28;20245;-75
2022/03/18 20:39:25;;;;;;;46.57;40.73;;;12.60;27.60;;;;;;10322923;28;20894;-75
2022/03/18 20:44:30;;;;;;;49.57;43.43;;;12.50;27.60;;;;;;10318261;28;20242;-76
2022/03/18 20:49:33;;;;;;;47.63;42.63;;;12.50;27.80;;;;;;10322833;28;20234;-74
2022/03/18 20:54:37;;;;;;;49.73;44.23;;;12.50;27.80;;;;;;10319694;28;20241;-75
2022/03/18 20:59:42;;;;;;;49.80;44.43;;;12.40;27.90;;;;;;10319069;28;20736;-75
2022/03/18 21:04:45;;;;;;;49.63;44.30;;;12.40;28.10;;;;;;10316104;28;20235;-76
2022/03/18 21:09:48;;;;;;;52.93;47.30;;;12.30;27.90;;;;;;10316132;28;20235;-74
2022/03/18 21:14:53;;;;;;;50.23;44.73;;;12.30;28.10;;;;;;10324605;28;20238;-74
2022/03/18 21:19:58;;;;;;;53.80;47.30;;;12.20;28.20;;;;;;10315030;28;20233;-75
2022/03/18 21:25:01;;;;;;;52.83;46.53;;;12.10;28.20;;;;;;10319286;28;20238;-74
2022/03/18 21:35:41;;;;;;;52.57;46.90;;;12.00;28.50;;;;;;10299272;28;20625;-75
2022/03/18 21:40:46;;;;;;;54.00;48.10;;;12.00;28.50;;;;;;10331141;28;20267;-73
2022/03/18 21:45:51;;;;;;;53.73;47.90;;;12.00;28.50;;;;;;10320562;28;20226;-74
2022/03/18 21:50:56;;;;;;;52.97;45.97;;;11.90;28.50;;;;;;10316730;28;20230;-75
2022/03/18 21:56:00;;;;;;;51.90;46.30;;;11.90;28.40;;;;;;10312613;28;20234;-74
2022/03/18 22:01:05;;;;;;;52.30;45.20;;;11.80;28.30;;;;;;10312721;28;20277;-73
2022/03/18 22:06:09;;;;;;;56.83;49.03;;;11.80;28.40;;;;;;10303746;28;20250;-74
2022/03/18 22:11:22;;;;;;;51.07;45.57;;;11.70;28.20;;;;;;10309260;28;20288;-74
2022/03/18 22:16:27;;;;;;;52.70;46.47;;;11.60;28.20;;;;;;10307892;28;20783;-74
2022/03/18 22:21:31;;;;;;;53.40;46.73;;;11.50;28.30;;;;;;10314584;28;20237;-74
2022/03/18 22:26:34;;;;;;;52.60;46.83;;;11.50;28.20;;;;;;10312245;28;20231;-74
2022/03/18 22:31:39;;;;;;;55.77;48.93;;;11.40;28.20;;;;;;10308868;28;20833;-74
2022/03/18 22:36:42;;;;;;;54.20;46.60;;;11.30;28.40;;;;;;10311775;28;20235;-73
2022/03/18 22:41:45;;;;;;;52.93;47.13;;;11.20;28.40;;;;;;10304539;28;20612;-74
2022/03/18 22:46:50;;;;;;;49.43;43.97;;;11.10;28.50;;;;;;10306129;28;20326;-74
2022/03/18 22:51:54;;;;;;;54.03;47.57;;;11.00;29.00;;;;;;10306575;28;20965;-74
2022/03/18 22:56:57;;;;;;;52.20;46.50;;;11.00;28.80;;;;;;10311967;28;20536;-74
2022/03/18 23:02:02;;;;;;;53.73;46.03;;;10.90;28.90;;;;;;10307659;28;20235;-74
2022/03/18 23:07:06;;;;;;;50.93;45.43;;;10.90;28.90;;;;;;10314049;28;20235;-74
2022/03/18 23:12:12;;;;;;;53.60;46.20;;;10.80;28.90;;;;;;10302160;28;20754;-75
2022/03/18 23:17:22;;;;;;;53.00;44.70;;;10.80;28.90;;;;;;10293671;28;20237;-75
2022/03/18 23:22:25;;;;;;;50.03;43.83;;;10.70;29.00;;;;;;10301562;28;20708;-74
2022/03/18 23:27:29;;;;;;;52.83;45.97;;;10.70;28.80;;;;;;10302232;28;20240;-75
2022/03/18 23:32:34;;;;;;;52.17;44.97;;;10.60;28.70;;;;;;10301058;28;20293;-73
2022/03/18 23:37:38;;;;;;;47.63;41.27;;;10.60;28.70;;;;;;10310013;28;20735;-74
2022/03/18 23:42:41;;;;;;;50.07;44.10;;;10.50;28.70;;;;;;10301350;28;20238;-74
2022/03/18 23:47:46;;;;;;;48.23;42.40;;;10.50;28.70;;;;;;10302129;28;20723;-73
2022/03/18 23:52:49;;;;;;;47.53;42.37;;;10.50;28.70;;;;;;10300707;28;20246;-73
2022/03/18 23:57:52;;;;;;;47.43;41.53;;;10.40;28.60;;;;;;10297997;28;20223;-74
